sensor_id;sensor_type;location;lat;lon;timestamp;temperature;humidity
33699;DHT22;20032;52.436;13.312;2022-09-28T00:01:26;9.20;99.90
33699;DHT22;20032;52.436;13.312;2022-09-28T00:03:55;9.30;99.90
33699;DHT22;20032;52.436;13.312;2022-09-28T00:06:26;9.40;99.90
33699;DHT22;20032;52.436;13.312;2022-09-28T00:08:52;9.40;99.90
33699;DHT22;20032;52.436;13.312;2022-09-28T00:11:20;9.40;99.90
33699;DHT22;20032;52.436;13.312;2022-09-28T00:13:49;9.40;99.90
33699;DHT22;20032;52.436;13.312;2022-09-28T00:16:17;9.30;99.90
33699;DHT22;20032;52.436;13.312;2022-09-28T00:18:44;9.30;99.90
33699;DHT22;20032;52.436;13.312;2022-09-28T00:21:15;9.20;99.90
33699;DHT22;20032;52.436;13.312;2022-09-28T00:23:41;9.20;99.90
33699;DHT22;20032;52.436;13.312;2022-09-28T00:26:29;9.20;99.90
33699;DHT22;20032;52.436;13.312;2022-09-28T00:28:57;9.30;99.90
33699;DHT22;20032;52.436;13.312;2022-09-28T00:31:27;9.20;99.90
33699;DHT22;20032;52.436;13.312;2022-09-28T00:33:54;9.20;99.90
33699;DHT22;20032;52.436;13.312;2022-09-28T00:36:22;9.10;99.90
33699;DHT22;20032;52.436;13.312;2022-09-28T00:38:49;9.10;99.90
33699;DHT22;20032;52.436;13.312;2022-09-28T00:41:15;9.10;99.90
33699;DHT22;20032;52.436;13.312;2022-09-28T00:43:41;9.10;99.90
33699;DHT22;20032;52.436;13.312;2022-09-28T00:46:14;9.20;99.90
33699;DHT22;20032;52.436;13.312;2022-09-28T00:48:51;9.20;99.90
33699;DHT22;20032;52.436;13.312;2022-09-28T00:51:19;9.10;99.90
33699;DHT22;20032;52.436;13.312;2022-09-28T00:53:45;9.10;99.90
33699;DHT22;20032;52.436;13.312;2022-09-28T00:56:14;9.10;99.90
33699;DHT22;20032;52.436;13.312;2022-09-28T00:58:45;9.10;99.90
33699;DHT22;20032;52.436;13.312;2022-09-28T01:01:12;9.20;99.90
33699;DHT22;20032;52.436;13.312;2022-09-28T01:03:38;9.30;99.90
33699;DHT22;20032;52.436;13.312;2022-09-28T01:06:22;9.30;99.90
33699;DHT22;20032;52.436;13.312;2022-09-28T01:08:50;9.30;99.90
33699;DHT22;20032;52.436;13.312;2022-09-28T01:11:17;9.40;99.90
33699;DHT22;20032;52.436;13.312;2022-09-28T01:13:43;9.30;99.90
33699;DHT22;20032;52.436;13.312;2022-09-28T01:16:22;9.40;99.90
33699;DHT22;20032;52.436;13.312;2022-09-28T01:22:12;9.30;99.90
33699;DHT22;20032;52.436;13.312;2022-09-28T01:24:45;9.20;99.90
33699;DHT22;20032;52.436;13.312;2022-09-28T01:30:05;9.10;99.90
33699;DHT22;20032;52.436;13.312;2022-09-28T01:32:57;9.10;99.90
33699;DHT22;20032;52.436;13.312;2022-09-28T01:35:33;9.20;99.90
33699;DHT22;20032;52.436;13.312;2022-09-28T01:38:05;9.30;99.90
33699;DHT22;20032;52.436;13.312;2022-09-28T01:40:31;9.40;99.90
33699;DHT22;20032;52.436;13.312;2022-09-28T01:43:01;9.40;99.90
33699;DHT22;20032;52.436;13.312;2022-09-28T01:45:32;9.50;99.90
33699;DHT22;20032;52.436;13.312;2022-09-28T01:48:01;9.50;99.90
33699;DHT22;20032;52.436;13.312;2022-09-28T01:50:34;9.40;99.90
33699;DHT22;20032;52.436;13.312;2022-09-28T01:53:10;9.40;99.90
33699;DHT22;20032;52.436;13.312;2022-09-28T01:55:41;9.30;99.90
33699;DHT22;20032;52.436;13.312;2022-09-28T02:00:38;9.30;99.90
33699;DHT22;20032;52.436;13.312;2022-09-28T02:03:17;9.30;99.90
33699;DHT22;20032;52.436;13.312;2022-09-28T02:05:50;9.20;99.90
33699;DHT22;20032;52.436;13.312;2022-09-28T02:08:35;9.10;99.90
33699;DHT22;20032;52.436;13.312;2022-09-28T02:11:10;9.10;99.90
33699;DHT22;20032;52.436;13.312;2022-09-28T02:13:42;9.20;99.90
33699;DHT22;20032;52.436;13.312;2022-09-28T02:16:09;9.20;99.90
33699;DHT22;20032;52.436;13.312;2022-09-28T02:18:38;9.30;99.90
33699;DHT22;20032;52.436;13.312;2022-09-28T02:21:10;9.20;99.90
33699;DHT22;20032;52.436;13.312;2022-09-28T02:23:38;9.30;99.90
33699;DHT22;20032;52.436;13.312;2022-09-28T02:26:10;9.30;99.90
33699;DHT22;20032;52.436;13.312;2022-09-28T02:28:36;9.30;99.90
33699;DHT22;20032;52.436;13.312;2022-09-28T02:31:01;9.30;99.90
33699;DHT22;20032;52.436;13.312;2022-09-28T02:33:35;9.40;99.90
33699;DHT22;20032;52.436;13.312;2022-09-28T02:36:01;9.50;99.90
33699;DHT22;20032;52.436;13.312;2022-09-28T02:38:29;9.40;99.90
33699;DHT22;20032;52.436;13.312;2022-09-28T02:45:40;9.20;99.90
33699;DHT22;20032;52.436;13.312;2022-09-28T02:48:23;9.20;99.90
33699;DHT22;20032;52.436;13.312;2022-09-28T02:50:41;9.30;99.90
33699;DHT22;20032;52.436;13.312;2022-09-28T02:58:01;9.30;99.90
33699;DHT22;20032;52.436;13.312;2022-09-28T02:58:39;9.30;99.90
33699;DHT22;20032;52.436;13.312;2022-09-28T03:01:25;9.30;99.90
33699;DHT22;20032;52.436;13.312;2022-09-28T03:04:00;9.30;99.90
33699;DHT22;20032;52.436;13.312;2022-09-28T03:06:36;9.30;99.90
33699;DHT22;20032;52.436;13.312;2022-09-28T03:09:40;9.30;99.90
33699;DHT22;20032;52.436;13.312;2022-09-28T03:12:11;9.20;99.90
33699;DHT22;20032;52.436;13.312;2022-09-28T03:14:37;9.30;99.90
33699;DHT22;20032;52.436;13.312;2022-09-28T03:17:03;9.30;99.90
33699;DHT22;20032;52.436;13.312;2022-09-28T03:19:31;9.30;99.90
33699;DHT22;20032;52.436;13.312;2022-09-28T03:21:57;9.10;99.90
33699;DHT22;20032;52.436;13.312;2022-09-28T03:24:23;9.00;99.90
33699;DHT22;20032;52.436;13.312;2022-09-28T03:26:49;9.00;99.90
33699;DHT22;20032;52.436;13.312;2022-09-28T03:29:14;9.00;99.90
33699;DHT22;20032;52.436;13.312;2022-09-28T03:31:40;8.90;99.90
33699;DHT22;20032;52.436;13.312;2022-09-28T03:34:05;8.90;99.90
33699;DHT22;20032;52.436;13.312;2022-09-28T03:36:31;8.60;99.90
33699;DHT22;20032;52.436;13.312;2022-09-28T03:38:56;8.60;99.90
33699;DHT22;20032;52.436;13.312;2022-09-28T03:41:23;8.50;99.90
33699;DHT22;20032;52.436;13.312;2022-09-28T03:43:49;8.60;99.90
33699;DHT22;20032;52.436;13.312;2022-09-28T03:46:14;8.60;99.90
33699;DHT22;20032;52.436;13.312;2022-09-28T03:48:40;8.60;99.90
33699;DHT22;20032;52.436;13.312;2022-09-28T03:51:06;8.60;99.90
33699;DHT22;20032;52.436;13.312;2022-09-28T03:53:34;8.60;99.90
33699;DHT22;20032;52.436;13.312;2022-09-28T03:56:03;8.50;99.90
33699;DHT22;20032;52.436;13.312;2022-09-28T03:58:29;8.50;99.90
33699;DHT22;20032;52.436;13.312;2022-09-28T04:01:02;8.50;99.90
33699;DHT22;20032;52.436;13.312;2022-09-28T04:03:28;8.40;99.90
33699;DHT22;20032;52.436;13.312;2022-09-28T04:05:54;8.40;99.90
33699;DHT22;20032;52.436;13.312;2022-09-28T04:08:19;8.40;99.90
33699;DHT22;20032;52.436;13.312;2022-09-28T04:10:45;8.40;99.90
33699;DHT22;20032;52.436;13.312;2022-09-28T04:13:11;8.30;99.90
33699;DHT22;20032;52.436;13.312;2022-09-28T04:15:37;8.30;99.90
33699;DHT22;20032;52.436;13.312;2022-09-28T04:18:04;8.40;99.90
33699;DHT22;20032;52.436;13.312;2022-09-28T04:20:29;8.40;99.90
33699;DHT22;20032;52.436;13.312;2022-09-28T04:22:56;8.40;99.90
33699;DHT22;20032;52.436;13.312;2022-09-28T04:25:22;8.40;99.90
33699;DHT22;20032;52.436;13.312;2022-09-28T04:27:48;8.40;99.90
33699;DHT22;20032;52.436;13.312;2022-09-28T04:30:33;8.30;99.90
33699;DHT22;20032;52.436;13.312;2022-09-28T04:32:59;8.40;99.90
33699;DHT22;20032;52.436;13.312;2022-09-28T04:35:24;8.40;99.90
33699;DHT22;20032;52.436;13.312;2022-09-28T04:37:50;8.40;99.90
33699;DHT22;20032;52.436;13.312;2022-09-28T04:40:16;8.40;99.90
33699;DHT22;20032;52.436;13.312;2022-09-28T04:42:41;8.40;99.90
33699;DHT22;20032;52.436;13.312;2022-09-28T04:45:07;8.40;99.90
33699;DHT22;20032;52.436;13.312;2022-09-28T04:47:33;8.40;99.90
33699;DHT22;20032;52.436;13.312;2022-09-28T04:49:58;8.30;99.90
33699;DHT22;20032;52.436;13.312;2022-09-28T04:52:24;8.30;99.90
33699;DHT22;20032;52.436;13.312;2022-09-28T04:54:51;8.40;99.90
33699;DHT22;20032;52.436;13.312;2022-09-28T04:57:16;8.30;99.90
33699;DHT22;20032;52.436;13.312;2022-09-28T04:59:42;8.40;99.90
33699;DHT22;20032;52.436;13.312;2022-09-28T05:02:07;8.50;99.90
33699;DHT22;20032;52.436;13.312;2022-09-28T05:04:33;8.60;99.90
33699;DHT22;20032;52.436;13.312;2022-09-28T05:06:58;8.50;99.90
33699;DHT22;20032;52.436;13.312;2022-09-28T05:09:24;8.50;99.90
33699;DHT22;20032;52.436;13.312;2022-09-28T05:11:49;8.50;99.90
33699;DHT22;20032;52.436;13.312;2022-09-28T05:14:17;8.50;99.90
33699;DHT22;20032;52.436;13.312;2022-09-28T05:16:44;8.60;99.90
33699;DHT22;20032;52.436;13.312;2022-09-28T05:19:09;8.70;99.90
33699;DHT22;20032;52.436;13.312;2022-09-28T05:21:35;8.70;99.90
33699;DHT22;20032;52.436;13.312;2022-09-28T05:24:01;8.80;99.90
33699;DHT22;20032;52.436;13.312;2022-09-28T05:26:32;8.60;99.90
33699;DHT22;20032;52.436;13.312;2022-09-28T05:28:59;8.60;99.90
33699;DHT22;20032;52.436;13.312;2022-09-28T05:31:24;8.70;99.90
33699;DHT22;20032;52.436;13.312;2022-09-28T05:33:52;8.80;99.90
33699;DHT22;20032;52.436;13.312;2022-09-28T05:36:19;8.80;99.90
33699;DHT22;20032;52.436;13.312;2022-09-28T05:38:47;8.90;99.90
33699;DHT22;20032;52.436;13.312;2022-09-28T05:41:16;8.90;99.90
33699;DHT22;20032;52.436;13.312;2022-09-28T05:43:45;8.90;99.90
33699;DHT22;20032;52.436;13.312;2022-09-28T05:46:10;8.90;99.90
33699;DHT22;20032;52.436;13.312;2022-09-28T05:48:36;8.90;99.90
33699;DHT22;20032;52.436;13.312;2022-09-28T05:51:02;8.90;99.90
33699;DHT22;20032;52.436;13.312;2022-09-28T05:53:27;8.90;99.90
33699;DHT22;20032;52.436;13.312;2022-09-28T05:55:56;8.90;99.90
33699;DHT22;20032;52.436;13.312;2022-09-28T05:58:22;8.90;99.90
33699;DHT22;20032;52.436;13.312;2022-09-28T06:00:54;9.00;99.90
33699;DHT22;20032;52.436;13.312;2022-09-28T06:03:20;9.00;99.90
33699;DHT22;20032;52.436;13.312;2022-09-28T06:05:45;9.00;99.90
33699;DHT22;20032;52.436;13.312;2022-09-28T06:08:11;9.00;99.90
33699;DHT22;20032;52.436;13.312;2022-09-28T06:10:37;9.10;99.90
33699;DHT22;20032;52.436;13.312;2022-09-28T06:13:03;9.10;99.90
33699;DHT22;20032;52.436;13.312;2022-09-28T06:15:31;9.00;99.90
33699;DHT22;20032;52.436;13.312;2022-09-28T06:18:01;9.00;99.90
33699;DHT22;20032;52.436;13.312;2022-09-28T06:20:28;9.10;99.90
33699;DHT22;20032;52.436;13.312;2022-09-28T06:22:55;9.10;99.90
33699;DHT22;20032;52.436;13.312;2022-09-28T06:25:21;9.10;99.90
33699;DHT22;20032;52.436;13.312;2022-09-28T06:27:56;9.10;99.90
33699;DHT22;20032;52.436;13.312;2022-09-28T06:30:22;9.10;99.90
33699;DHT22;20032;52.436;13.312;2022-09-28T06:32:53;9.10;99.90
33699;DHT22;20032;52.436;13.312;2022-09-28T06:35:21;9.10;99.90
33699;DHT22;20032;52.436;13.312;2022-09-28T06:37:47;9.10;99.90
33699;DHT22;20032;52.436;13.312;2022-09-28T06:40:12;9.20;99.90
33699;DHT22;20032;52.436;13.312;2022-09-28T06:42:38;9.20;99.90
33699;DHT22;20032;52.436;13.312;2022-09-28T06:45:04;9.20;99.90
33699;DHT22;20032;52.436;13.312;2022-09-28T06:47:30;9.30;99.90
33699;DHT22;20032;52.436;13.312;2022-09-28T06:49:58;9.30;99.90
33699;DHT22;20032;52.436;13.312;2022-09-28T06:52:24;9.40;99.90
33699;DHT22;20032;52.436;13.312;2022-09-28T06:54:50;9.40;99.90
33699;DHT22;20032;52.436;13.312;2022-09-28T06:57:15;9.40;99.90
33699;DHT22;20032;52.436;13.312;2022-09-28T06:59:41;9.50;99.90
33699;DHT22;20032;52.436;13.312;2022-09-28T07:02:10;9.50;99.90
33699;DHT22;20032;52.436;13.312;2022-09-28T07:04:40;9.50;99.90
33699;DHT22;20032;52.436;13.312;2022-09-28T07:07:08;9.60;99.90
33699;DHT22;20032;52.436;13.312;2022-09-28T07:09:34;9.60;99.90
33699;DHT22;20032;52.436;13.312;2022-09-28T07:12:01;9.70;99.90
33699;DHT22;20032;52.436;13.312;2022-09-28T07:14:28;9.70;99.90
33699;DHT22;20032;52.436;13.312;2022-09-28T07:16:54;9.70;99.90
33699;DHT22;20032;52.436;13.312;2022-09-28T07:19:20;9.80;99.90
33699;DHT22;20032;52.436;13.312;2022-09-28T07:21:45;9.80;99.90
33699;DHT22;20032;52.436;13.312;2022-09-28T07:24:11;9.90;99.90
33699;DHT22;20032;52.436;13.312;2022-09-28T07:26:38;10.00;99.90
33699;DHT22;20032;52.436;13.312;2022-09-28T07:29:04;10.10;99.90
33699;DHT22;20032;52.436;13.312;2022-09-28T07:31:29;10.20;99.90
33699;DHT22;20032;52.436;13.312;2022-09-28T07:33:57;10.20;99.90
33699;DHT22;20032;52.436;13.312;2022-09-28T07:36:23;10.30;99.90
33699;DHT22;20032;52.436;13.312;2022-09-28T07:38:49;10.30;99.90
33699;DHT22;20032;52.436;13.312;2022-09-28T07:41:14;10.30;99.90
33699;DHT22;20032;52.436;13.312;2022-09-28T07:43:45;10.30;99.90
33699;DHT22;20032;52.436;13.312;2022-09-28T07:46:11;10.30;99.90
33699;DHT22;20032;52.436;13.312;2022-09-28T07:48:39;10.20;99.90
33699;DHT22;20032;52.436;13.312;2022-09-28T07:51:04;10.00;99.90
33699;DHT22;20032;52.436;13.312;2022-09-28T07:53:30;10.20;99.90
33699;DHT22;20032;52.436;13.312;2022-09-28T07:55:57;10.20;99.90
33699;DHT22;20032;52.436;13.312;2022-09-28T07:58:29;10.40;99.90
33699;DHT22;20032;52.436;13.312;2022-09-28T08:00:57;10.30;99.90
33699;DHT22;20032;52.436;13.312;2022-09-28T08:03:25;10.40;99.90
33699;DHT22;20032;52.436;13.312;2022-09-28T08:05:59;10.40;99.90
33699;DHT22;20032;52.436;13.312;2022-09-28T08:08:25;10.50;99.90
33699;DHT22;20032;52.436;13.312;2022-09-28T08:10:51;10.60;99.90
33699;DHT22;20032;52.436;13.312;2022-09-28T08:13:18;10.60;99.90
33699;DHT22;20032;52.436;13.312;2022-09-28T08:15:44;10.60;99.90
33699;DHT22;20032;52.436;13.312;2022-09-28T08:18:12;10.60;99.90
33699;DHT22;20032;52.436;13.312;2022-09-28T08:20:38;10.70;99.90
33699;DHT22;20032;52.436;13.312;2022-09-28T08:23:23;10.70;99.90
33699;DHT22;20032;52.436;13.312;2022-09-28T08:25:50;10.80;99.90
33699;DHT22;20032;52.436;13.312;2022-09-28T08:28:18;10.90;99.90
33699;DHT22;20032;52.436;13.312;2022-09-28T08:30:45;10.90;99.90
33699;DHT22;20032;52.436;13.312;2022-09-28T08:33:11;11.00;99.90
33699;DHT22;20032;52.436;13.312;2022-09-28T08:35:37;11.20;99.90
33699;DHT22;20032;52.436;13.312;2022-09-28T08:38:04;11.30;99.90
33699;DHT22;20032;52.436;13.312;2022-09-28T08:40:33;11.40;99.90
33699;DHT22;20032;52.436;13.312;2022-09-28T08:43:05;11.40;99.90
33699;DHT22;20032;52.436;13.312;2022-09-28T08:45:34;11.40;99.90
33699;DHT22;20032;52.436;13.312;2022-09-28T08:48:08;11.40;99.90
33699;DHT22;20032;52.436;13.312;2022-09-28T08:50:59;11.30;99.90
33699;DHT22;20032;52.436;13.312;2022-09-28T08:53:42;11.30;99.90
33699;DHT22;20032;52.436;13.312;2022-09-28T08:56:14;11.30;99.90
33699;DHT22;20032;52.436;13.312;2022-09-28T08:58:44;11.40;99.90
33699;DHT22;20032;52.436;13.312;2022-09-28T09:01:13;11.40;99.90
33699;DHT22;20032;52.436;13.312;2022-09-28T09:03:43;11.50;99.90
33699;DHT22;20032;52.436;13.312;2022-09-28T09:06:33;11.50;99.90
33699;DHT22;20032;52.436;13.312;2022-09-28T09:09:44;11.70;99.90
33699;DHT22;20032;52.436;13.312;2022-09-28T09:12:12;11.60;99.90
33699;DHT22;20032;52.436;13.312;2022-09-28T09:14:56;11.60;99.90
33699;DHT22;20032;52.436;13.312;2022-09-28T09:17:46;11.60;99.90
33699;DHT22;20032;52.436;13.312;2022-09-28T09:23:05;11.90;99.90
33699;DHT22;20032;52.436;13.312;2022-09-28T09:25:51;12.20;99.90
33699;DHT22;20032;52.436;13.312;2022-09-28T09:28:29;12.30;99.90
33699;DHT22;20032;52.436;13.312;2022-09-28T09:31:17;12.50;99.90
33699;DHT22;20032;52.436;13.312;2022-09-28T09:34:09;12.70;99.90
33699;DHT22;20032;52.436;13.312;2022-09-28T09:39:32;12.90;99.90
33699;DHT22;20032;52.436;13.312;2022-09-28T09:44:48;12.90;99.90
33699;DHT22;20032;52.436;13.312;2022-09-28T09:47:27;12.80;99.90
33699;DHT22;20032;52.436;13.312;2022-09-28T09:50:02;12.60;99.90
33699;DHT22;20032;52.436;13.312;2022-09-28T09:52:52;12.60;99.90
33699;DHT22;20032;52.436;13.312;2022-09-28T09:58:06;12.70;99.90
33699;DHT22;20032;52.436;13.312;2022-09-28T10:00:36;12.70;99.90
33699;DHT22;20032;52.436;13.312;2022-09-28T10:03:03;12.70;99.90
33699;DHT22;20032;52.436;13.312;2022-09-28T10:05:30;12.80;99.90
33699;DHT22;20032;52.436;13.312;2022-09-28T10:08:02;12.90;99.90
33699;DHT22;20032;52.436;13.312;2022-09-28T10:10:34;13.10;99.90
33699;DHT22;20032;52.436;13.312;2022-09-28T10:13:00;13.20;99.90
33699;DHT22;20032;52.436;13.312;2022-09-28T10:15:28;13.20;99.90
33699;DHT22;20032;52.436;13.312;2022-09-28T10:17:56;13.20;99.90
33699;DHT22;20032;52.436;13.312;2022-09-28T10:20:23;13.30;99.90
33699;DHT22;20032;52.436;13.312;2022-09-28T10:22:50;13.20;99.90
33699;DHT22;20032;52.436;13.312;2022-09-28T10:25:16;13.10;99.90
33699;DHT22;20032;52.436;13.312;2022-09-28T10:27:44;12.90;99.90
33699;DHT22;20032;52.436;13.312;2022-09-28T10:30:16;12.80;99.90
33699;DHT22;20032;52.436;13.312;2022-09-28T10:32:45;12.60;99.90
33699;DHT22;20032;52.436;13.312;2022-09-28T10:35:24;12.50;99.90
33699;DHT22;20032;52.436;13.312;2022-09-28T10:43:27;12.40;99.90
33699;DHT22;20032;52.436;13.312;2022-09-28T10:46:12;12.30;99.90
33699;DHT22;20032;52.436;13.312;2022-09-28T10:48:58;12.30;99.90
33699;DHT22;20032;52.436;13.312;2022-09-28T10:51:43;12.30;99.90
33699;DHT22;20032;52.436;13.312;2022-09-28T10:54:16;12.20;99.90
33699;DHT22;20032;52.436;13.312;2022-09-28T10:56:42;12.10;99.90
33699;DHT22;20032;52.436;13.312;2022-09-28T11:02:19;12.10;99.90
33699;DHT22;20032;52.436;13.312;2022-09-28T11:04:57;12.00;99.90
33699;DHT22;20032;52.436;13.312;2022-09-28T11:07:27;12.00;99.90
33699;DHT22;20032;52.436;13.312;2022-09-28T11:09:54;11.90;99.90
33699;DHT22;20032;52.436;13.312;2022-09-28T11:12:23;11.80;99.90
33699;DHT22;20032;52.436;13.312;2022-09-28T11:15:06;11.80;99.90
33699;DHT22;20032;52.436;13.312;2022-09-28T11:17:38;11.70;99.90
33699;DHT22;20032;52.436;13.312;2022-09-28T11:22:52;11.80;99.90
33699;DHT22;20032;52.436;13.312;2022-09-28T11:25:20;11.80;99.90
33699;DHT22;20032;52.436;13.312;2022-09-28T11:30:38;11.70;99.90
33699;DHT22;20032;52.436;13.312;2022-09-28T11:33:14;11.70;99.90
33699;DHT22;20032;52.436;13.312;2022-09-28T11:35:50;11.70;99.90
33699;DHT22;20032;52.436;13.312;2022-09-28T11:38:26;11.70;99.90
33699;DHT22;20032;52.436;13.312;2022-09-28T11:49:23;11.70;99.90
33699;DHT22;20032;52.436;13.312;2022-09-28T11:51:51;11.70;99.90
33699;DHT22;20032;52.436;13.312;2022-09-28T11:54:25;11.70;99.90
33699;DHT22;20032;52.436;13.312;2022-09-28T11:56:54;11.60;99.90
33699;DHT22;20032;52.436;13.312;2022-09-28T11:59:46;11.50;99.90
33699;DHT22;20032;52.436;13.312;2022-09-28T12:02:23;11.40;99.90
33699;DHT22;20032;52.436;13.312;2022-09-28T12:07:26;11.50;99.90
33699;DHT22;20032;52.436;13.312;2022-09-28T12:10:02;11.60;99.90
33699;DHT22;20032;52.436;13.312;2022-09-28T12:12:37;11.60;99.90
33699;DHT22;20032;52.436;13.312;2022-09-28T12:15:20;11.70;99.90
33699;DHT22;20032;52.436;13.312;2022-09-28T12:17:52;11.70;99.90
33699;DHT22;20032;52.436;13.312;2022-09-28T12:20:39;11.70;99.90
33699;DHT22;20032;52.436;13.312;2022-09-28T12:23:12;11.60;99.90
33699;DHT22;20032;52.436;13.312;2022-09-28T12:25:43;11.60;99.90
33699;DHT22;20032;52.436;13.312;2022-09-28T12:28:20;11.50;99.90
33699;DHT22;20032;52.436;13.312;2022-09-28T12:30:53;11.50;99.90
33699;DHT22;20032;52.436;13.312;2022-09-28T12:33:19;11.50;99.90
33699;DHT22;20032;52.436;13.312;2022-09-28T12:36:01;11.50;99.90
33699;DHT22;20032;52.436;13.312;2022-09-28T12:38:42;11.60;99.90
33699;DHT22;20032;52.436;13.312;2022-09-28T12:41:32;11.70;99.90
33699;DHT22;20032;52.436;13.312;2022-09-28T12:47:18;11.50;99.90
33699;DHT22;20032;52.436;13.312;2022-09-28T12:50:07;11.40;99.90
33699;DHT22;20032;52.436;13.312;2022-09-28T12:52:47;11.50;99.90
33699;DHT22;20032;52.436;13.312;2022-09-28T12:55:18;11.50;99.90
33699;DHT22;20032;52.436;13.312;2022-09-28T12:57:57;11.60;99.90
33699;DHT22;20032;52.436;13.312;2022-09-28T13:00:36;11.70;99.90
33699;DHT22;20032;52.436;13.312;2022-09-28T13:03:18;11.70;99.90
33699;DHT22;20032;52.436;13.312;2022-09-28T13:07:31;11.80;99.90
33699;DHT22;20032;52.436;13.312;2022-09-28T13:08:59;11.80;99.90
33699;DHT22;20032;52.436;13.312;2022-09-28T13:11:52;11.80;99.90
33699;DHT22;20032;52.436;13.312;2022-09-28T13:17:31;11.70;99.90
33699;DHT22;20032;52.436;13.312;2022-09-28T13:20:26;11.80;99.90
33699;DHT22;20032;52.436;13.312;2022-09-28T13:23:18;12.00;99.90
33699;DHT22;20032;52.436;13.312;2022-09-28T13:25:54;12.00;99.90
33699;DHT22;20032;52.436;13.312;2022-09-28T13:28:22;12.00;99.90
33699;DHT22;20032;52.436;13.312;2022-09-28T13:30:50;12.00;99.90
33699;DHT22;20032;52.436;13.312;2022-09-28T13:33:22;11.90;99.90
33699;DHT22;20032;52.436;13.312;2022-09-28T13:35:50;11.90;99.90
33699;DHT22;20032;52.436;13.312;2022-09-28T13:44:41;12.30;99.90
33699;DHT22;20032;52.436;13.312;2022-09-28T13:46:47;12.30;99.90
33699;DHT22;20032;52.436;13.312;2022-09-28T13:49:50;12.20;99.90
33699;DHT22;20032;52.436;13.312;2022-09-28T13:52:08;12.30;99.90
33699;DHT22;20032;52.436;13.312;2022-09-28T13:54:49;12.40;99.90
33699;DHT22;20032;52.436;13.312;2022-09-28T13:57:30;12.50;99.90
33699;DHT22;20032;52.436;13.312;2022-09-28T14:02:41;12.40;99.90
33699;DHT22;20032;52.436;13.312;2022-09-28T14:06:29;12.40;99.90
33699;DHT22;20032;52.436;13.312;2022-09-28T14:08:31;12.40;99.90
33699;DHT22;20032;52.436;13.312;2022-09-28T14:16:39;12.40;99.90
33699;DHT22;20032;52.436;13.312;2022-09-28T14:19:08;12.60;99.90
33699;DHT22;20032;52.436;13.312;2022-09-28T14:21:49;12.60;99.90
33699;DHT22;20032;52.436;13.312;2022-09-28T14:24:35;12.60;99.90
33699;DHT22;20032;52.436;13.312;2022-09-28T14:28:20;12.70;99.90
33699;DHT22;20032;52.436;13.312;2022-09-28T14:30:15;12.60;99.90
33699;DHT22;20032;52.436;13.312;2022-09-28T14:32:48;12.50;99.90
33699;DHT22;20032;52.436;13.312;2022-09-28T14:35:32;12.50;99.90
33699;DHT22;20032;52.436;13.312;2022-09-28T14:38:11;12.60;99.90
33699;DHT22;20032;52.436;13.312;2022-09-28T14:49:03;12.70;99.90
33699;DHT22;20032;52.436;13.312;2022-09-28T14:54:04;12.90;99.90
33699;DHT22;20032;52.436;13.312;2022-09-28T14:56:38;13.00;99.90
33699;DHT22;20032;52.436;13.312;2022-09-28T14:59:05;13.00;99.90
33699;DHT22;20032;52.436;13.312;2022-09-28T15:01:32;13.10;99.90
33699;DHT22;20032;52.436;13.312;2022-09-28T15:04:02;13.00;99.90
33699;DHT22;20032;52.436;13.312;2022-09-28T15:06:44;12.90;99.90
33699;DHT22;20032;52.436;13.312;2022-09-28T15:11:59;12.80;99.90
33699;DHT22;20032;52.436;13.312;2022-09-28T15:14:26;12.70;99.90
33699;DHT22;20032;52.436;13.312;2022-09-28T15:16:57;12.50;99.90
33699;DHT22;20032;52.436;13.312;2022-09-28T15:19:34;12.60;99.90
33699;DHT22;20032;52.436;13.312;2022-09-28T15:22:13;12.60;99.90
33699;DHT22;20032;52.436;13.312;2022-09-28T15:24:44;12.50;99.90
33699;DHT22;20032;52.436;13.312;2022-09-28T15:27:17;12.60;99.90
33699;DHT22;20032;52.436;13.312;2022-09-28T15:29:58;12.50;99.90
33699;DHT22;20032;52.436;13.312;2022-09-28T15:32:25;12.50;99.90
33699;DHT22;20032;52.436;13.312;2022-09-28T15:34:51;12.40;99.90
33699;DHT22;20032;52.436;13.312;2022-09-28T15:37:22;12.40;99.90
33699;DHT22;20032;52.436;13.312;2022-09-28T15:39:48;12.40;99.90
33699;DHT22;20032;52.436;13.312;2022-09-28T15:42:15;12.30;99.90
33699;DHT22;20032;52.436;13.312;2022-09-28T15:44:42;12.40;99.90
33699;DHT22;20032;52.436;13.312;2022-09-28T15:47:27;12.30;99.90
33699;DHT22;20032;52.436;13.312;2022-09-28T15:49:55;12.20;99.90
33699;DHT22;20032;52.436;13.312;2022-09-28T15:52:34;12.20;99.90
33699;DHT22;20032;52.436;13.312;2022-09-28T15:55:11;12.10;99.90
33699;DHT22;20032;52.436;13.312;2022-09-28T15:57:41;12.10;99.90
33699;DHT22;20032;52.436;13.312;2022-09-28T16:00:28;12.10;99.90
33699;DHT22;20032;52.436;13.312;2022-09-28T16:02:59;11.90;99.90
33699;DHT22;20032;52.436;13.312;2022-09-28T16:08:01;11.80;99.90
33699;DHT22;20032;52.436;13.312;2022-09-28T16:10:30;11.70;99.90
33699;DHT22;20032;52.436;13.312;2022-09-28T16:13:07;11.70;99.90
33699;DHT22;20032;52.436;13.312;2022-09-28T16:15:35;11.60;99.90
33699;DHT22;20032;52.436;13.312;2022-09-28T16:20:42;11.50;99.90
33699;DHT22;20032;52.436;13.312;2022-09-28T16:23:18;11.40;99.90
33699;DHT22;20032;52.436;13.312;2022-09-28T16:25:53;11.50;99.90
33699;DHT22;20032;52.436;13.312;2022-09-28T16:36:14;11.50;99.90
33699;DHT22;20032;52.436;13.312;2022-09-28T16:38:44;11.50;99.90
33699;DHT22;20032;52.436;13.312;2022-09-28T16:41:10;11.50;99.90
33699;DHT22;20032;52.436;13.312;2022-09-28T16:43:36;11.40;99.90
33699;DHT22;20032;52.436;13.312;2022-09-28T16:46:07;11.30;99.90
33699;DHT22;20032;52.436;13.312;2022-09-28T16:48:37;11.30;99.90
33699;DHT22;20032;52.436;13.312;2022-09-28T16:51:04;11.20;99.90
33699;DHT22;20032;52.436;13.312;2022-09-28T16:53:30;11.20;99.90
33699;DHT22;20032;52.436;13.312;2022-09-28T16:56:15;11.20;99.90
33699;DHT22;20032;52.436;13.312;2022-09-28T16:58:41;11.10;99.90
33699;DHT22;20032;52.436;13.312;2022-09-28T17:01:09;11.00;99.90
33699;DHT22;20032;52.436;13.312;2022-09-28T17:03:35;11.00;99.90
33699;DHT22;20032;52.436;13.312;2022-09-28T17:06:02;11.00;99.90
33699;DHT22;20032;52.436;13.312;2022-09-28T17:08:28;11.00;99.90
33699;DHT22;20032;52.436;13.312;2022-09-28T17:10:57;11.00;99.90
33699;DHT22;20032;52.436;13.312;2022-09-28T17:13:25;11.00;99.90
33699;DHT22;20032;52.436;13.312;2022-09-28T17:15:56;11.00;99.90
33699;DHT22;20032;52.436;13.312;2022-09-28T17:18:23;11.00;99.90
33699;DHT22;20032;52.436;13.312;2022-09-28T17:20:50;11.00;99.90
33699;DHT22;20032;52.436;13.312;2022-09-28T17:23:20;10.90;99.90
33699;DHT22;20032;52.436;13.312;2022-09-28T17:25:46;10.90;99.90
33699;DHT22;20032;52.436;13.312;2022-09-28T17:28:19;10.90;99.90